createdAt,value
2022-09-21T00:01:43.240Z,4.07
2022-09-21T00:04:12.992Z,3.40
2022-09-21T00:06:40.898Z,3.42
2022-09-21T00:09:11.409Z,5.25
2022-09-21T00:11:39.084Z,5.55
2022-09-21T00:14:12.591Z,4.40
2022-09-21T00:16:41.205Z,7.33
2022-09-21T00:19:09.176Z,3.47
2022-09-21T00:21:38.242Z,5.60
2022-09-21T00:24:06.210Z,3.15
2022-09-21T00:26:35.371Z,4.50
2022-09-21T00:29:08.557Z,3.83
2022-09-21T00:31:39.551Z,5.18
2022-09-21T00:34:09.573Z,4.07
2022-09-21T00:36:43.855Z,7.90
2022-09-21T00:39:18.956Z,3.22
2022-09-21T00:41:54.395Z,3.80
2022-09-21T00:44:26.577Z,3.72
2022-09-21T00:47:10.603Z,4.78
2022-09-21T00:49:38.796Z,3.63
2022-09-21T00:52:13.094Z,4.13
2022-09-21T00:57:31.164Z,7.75
2022-09-21T01:00:01.663Z,4.60
2022-09-21T01:02:31.381Z,6.95
2022-09-21T01:04:59.480Z,3.65
2022-09-21T01:07:31.999Z,3.92
2022-09-21T01:10:05.246Z,4.78
2022-09-21T01:12:55.185Z,3.55
2022-09-21T01:15:43.215Z,3.50
2022-09-21T01:18:18.422Z,3.53
2022-09-21T01:21:16.641Z,4.43
2022-09-21T01:23:54.280Z,4.53
2022-09-21T01:26:25.200Z,5.07
2022-09-21T01:29:02.578Z,4.18
2022-09-21T01:31:33.272Z,2.58
2022-09-21T01:34:07.452Z,2.92
2022-09-21T01:36:35.798Z,2.58
2022-09-21T01:39:05.859Z,4.38
2022-09-21T01:41:33.996Z,3.35
2022-09-21T01:44:08.410Z,3.75
2022-09-21T01:49:06.499Z,4.10
2022-09-21T01:51:34.987Z,5.68
2022-09-21T01:54:04.039Z,3.45
2022-09-21T01:56:34.255Z,4.85
2022-09-21T01:59:08.303Z,5.35
2022-09-21T02:01:37.764Z,9.40
2022-09-21T02:04:06.797Z,6.95
2022-09-21T02:06:34.659Z,4.32
2022-09-21T02:09:02.350Z,5.55
2022-09-21T02:11:29.960Z,6.40
2022-09-21T02:13:57.699Z,3.80
2022-09-21T02:16:31.030Z,5.40
2022-09-21T02:19:09.333Z,3.97
2022-09-21T02:21:41.784Z,3.63
2022-09-21T02:24:12.350Z,5.47
2022-09-21T02:26:41.564Z,5.35
2022-09-21T02:29:16.073Z,3.72
2022-09-21T02:31:48.324Z,4.22
2022-09-21T02:34:20.238Z,4.63
2022-09-21T02:36:49.405Z,4.90
2022-09-21T02:39:18.476Z,4.50
2022-09-21T02:41:51.862Z,3.92
2022-09-21T02:44:22.647Z,3.22
2022-09-21T02:46:54.926Z,4.13
2022-09-21T02:49:26.394Z,3.28
2022-09-21T02:51:55.035Z,5.85
2022-09-21T02:54:25.830Z,4.13
2022-09-21T02:56:54.182Z,4.05
2022-09-21T02:59:23.604Z,3.38
2022-09-21T03:01:53.061Z,5.80
2022-09-21T03:04:21.516Z,4.35
2022-09-21T03:06:49.208Z,6.97
2022-09-21T03:09:17.332Z,3.17
2022-09-21T03:11:45.001Z,3.78
2022-09-21T03:14:12.631Z,3.28
2022-09-21T03:16:40.299Z,3.92
2022-09-21T03:19:09.325Z,4.45
2022-09-21T03:21:40.126Z,4.05
2022-09-21T03:24:10.127Z,3.42
2022-09-21T03:26:37.818Z,3.30
2022-09-21T03:29:05.611Z,2.70
2022-09-21T03:31:34.661Z,2.75
2022-09-21T03:34:02.492Z,5.97
2022-09-21T03:36:31.516Z,4.38
2022-09-21T03:38:59.134Z,3.00
2022-09-21T03:41:26.762Z,4.47
2022-09-21T03:43:54.575Z,3.03
2022-09-21T03:46:22.309Z,6.88
2022-09-21T03:48:50.055Z,4.53
2022-09-21T03:51:17.787Z,3.38
2022-09-21T03:53:46.792Z,3.00
2022-09-21T03:56:14.406Z,4.70
2022-09-21T03:58:42.115Z,5.38
2022-09-21T04:01:09.783Z,3.72
2022-09-21T04:03:38.156Z,4.82
2022-09-21T04:06:09.741Z,3.05
2022-09-21T04:08:37.388Z,4.97
2022-09-21T04:11:12.740Z,3.25
2022-09-21T04:13:40.360Z,2.97
2022-09-21T04:16:08.089Z,9.95
2022-09-21T04:18:35.790Z,5.28
2022-09-21T04:21:03.426Z,3.40
2022-09-21T04:23:31.139Z,4.57
2022-09-21T04:25:58.743Z,4.50
2022-09-21T04:28:27.783Z,3.55
2022-09-21T04:30:56.383Z,4.35
2022-09-21T04:33:24.477Z,3.38
2022-09-21T04:35:55.580Z,7.38
2022-09-21T04:38:23.276Z,3.70
2022-09-21T04:40:55.878Z,2.90
2022-09-21T04:43:23.863Z,2.63
2022-09-21T04:45:53.413Z,3.63
2022-09-21T04:48:21.083Z,6.43
2022-09-21T04:50:49.772Z,3.35
2022-09-21T04:53:17.564Z,6.88
2022-09-21T04:55:46.197Z,2.40
2022-09-21T04:58:13.919Z,3.67
2022-09-21T05:00:41.604Z,2.85
2022-09-21T05:03:10.797Z,3.35
2022-09-21T05:05:38.422Z,2.42
2022-09-21T05:08:06.062Z,2.75
2022-09-21T05:10:32.703Z,2.63
2022-09-21T05:13:00.499Z,2.80
2022-09-21T05:15:28.206Z,4.72
2022-09-21T05:17:55.863Z,4.32
2022-09-21T05:20:26.014Z,2.65
2022-09-21T05:22:53.636Z,3.15
2022-09-21T05:25:21.224Z,3.33
2022-09-21T05:27:49.108Z,6.05
2022-09-21T05:30:17.073Z,3.75
2022-09-21T05:32:47.094Z,3.17
2022-09-21T05:35:20.493Z,3.13
2022-09-21T05:37:53.308Z,8.10
2022-09-21T05:40:21.521Z,6.18
2022-09-21T05:42:49.541Z,3.97
2022-09-21T05:45:17.977Z,3.42
2022-09-21T05:47:50.276Z,4.72
2022-09-21T05:50:25.475Z,3.22
2022-09-21T05:53:02.898Z,4.70
2022-09-21T05:55:33.057Z,5.60
2022-09-21T05:58:07.460Z,3.78
2022-09-21T06:03:17.870Z,3.30
2022-09-21T06:05:47.700Z,4.25
2022-09-21T06:08:16.708Z,3.95
2022-09-21T06:10:44.394Z,3.60
2022-09-21T06:13:12.165Z,3.10
2022-09-21T06:15:40.273Z,5.10
2022-09-21T06:18:08.310Z,2.80
2022-09-21T06:20:36.384Z,4.85
2022-09-21T06:23:04.444Z,2.65
2022-09-21T06:25:34.166Z,3.15
2022-09-21T06:28:04.466Z,5.28
2022-09-21T06:30:33.340Z,2.55
2022-09-21T06:33:01.675Z,2.92
2022-09-21T06:35:29.872Z,3.83
2022-09-21T06:38:00.788Z,4.05
2022-09-21T06:40:28.946Z,2.72
2022-09-21T06:43:01.339Z,2.75
2022-09-21T06:45:29.650Z,5.13
2022-09-21T06:47:57.334Z,5.50
2022-09-21T06:50:25.182Z,3.83
2022-09-21T06:52:52.830Z,7.85
2022-09-21T06:55:20.800Z,3.72
2022-09-21T06:57:48.537Z,3.45
2022-09-21T07:00:17.757Z,2.85
2022-09-21T07:02:45.795Z,7.35
2022-09-21T07:05:13.806Z,5.03
2022-09-21T07:07:41.425Z,6.35
2022-09-21T07:10:14.615Z,4.50
2022-09-21T07:12:44.947Z,2.60
2022-09-21T07:15:13.534Z,2.95
2022-09-21T07:17:43.139Z,4.28
2022-09-21T07:20:11.876Z,4.45
2022-09-21T07:22:41.474Z,2.35
2022-09-21T07:25:10.400Z,5.28
2022-09-21T07:27:41.268Z,3.25
2022-09-21T07:30:09.902Z,4.35
2022-09-21T07:32:37.628Z,3.33
2022-09-21T07:35:07.515Z,5.07
2022-09-21T07:37:35.262Z,3.65
2022-09-21T07:40:06.171Z,4.03
2022-09-21T07:42:34.029Z,5.97
2022-09-21T07:45:04.799Z,4.40
2022-09-21T07:47:34.005Z,7.50
2022-09-21T07:50:01.643Z,4.97
2022-09-21T07:52:30.615Z,3.70
2022-09-21T07:54:58.256Z,9.48
2022-09-21T07:57:43.572Z,4.10
2022-09-21T08:00:11.871Z,5.10
2022-09-21T08:02:43.808Z,4.00
2022-09-21T08:05:14.747Z,5.28
2022-09-21T08:07:44.260Z,4.20
2022-09-21T08:10:12.099Z,4.45
2022-09-21T08:12:40.087Z,7.40
2022-09-21T08:15:20.393Z,4.45
2022-09-21T08:17:58.853Z,4.20
2022-09-21T08:20:26.572Z,4.15
2022-09-21T08:23:00.386Z,6.60
2022-09-21T08:25:28.459Z,5.90
2022-09-21T08:27:58.470Z,3.92
2022-09-21T08:30:28.031Z,5.05
2022-09-21T08:32:56.053Z,4.53
2022-09-21T08:35:24.019Z,5.13
2022-09-21T08:37:54.708Z,4.82
2022-09-21T08:40:24.239Z,5.03
2022-09-21T08:42:57.503Z,4.38
2022-09-21T08:45:27.756Z,4.50
2022-09-21T08:47:57.341Z,8.27
2022-09-21T08:50:29.500Z,4.07
2022-09-21T08:52:59.971Z,4.38
2022-09-21T08:55:29.096Z,6.30
2022-09-21T08:57:56.792Z,6.88
2022-09-21T09:00:24.612Z,4.95
2022-09-21T09:03:10.748Z,5.35
2022-09-21T09:05:43.148Z,6.95
2022-09-21T09:08:18.916Z,7.25
2022-09-21T09:10:54.486Z,5.22
2022-09-21T09:13:29.997Z,7.05
2022-09-21T09:16:03.060Z,5.40
2022-09-21T09:18:33.450Z,8.82
2022-09-21T09:21:03.017Z,4.00
2022-09-21T09:23:33.794Z,4.32
2022-09-21T09:26:05.224Z,8.52
2022-09-21T09:28:36.075Z,5.22
2022-09-21T09:31:07.123Z,5.30
2022-09-21T09:33:44.905Z,4.40
2022-09-21T09:36:13.662Z,8.55
2022-09-21T09:38:43.164Z,3.45
2022-09-21T09:41:28.477Z,5.93
2022-09-21T09:44:04.716Z,4.68
2022-09-21T09:46:34.983Z,2.28
2022-09-21T09:49:10.107Z,2.95
2022-09-21T09:51:38.538Z,2.70
2022-09-21T09:54:10.161Z,5.20
2022-09-21T09:56:38.155Z,2.78
2022-09-21T09:59:10.882Z,3.42
2022-09-21T10:01:39.587Z,2.70
2022-09-21T10:04:08.428Z,2.33
2022-09-21T10:06:36.638Z,2.65
2022-09-21T10:09:19.280Z,2.85
2022-09-21T10:11:48.429Z,2.83
2022-09-21T10:14:19.499Z,4.53
2022-09-21T10:16:48.079Z,3.63
2022-09-21T10:19:16.754Z,2.13
2022-09-21T10:21:48.797Z,2.03
2022-09-21T10:24:23.465Z,3.70
2022-09-21T10:26:54.587Z,2.55
2022-09-21T10:29:31.463Z,4.40
2022-09-21T10:32:00.520Z,2.17
2022-09-21T10:34:29.116Z,5.32
2022-09-21T10:36:57.393Z,3.35
2022-09-21T10:39:31.048Z,1.98
2022-09-21T10:42:04.379Z,5.80
2022-09-21T10:44:39.150Z,13.32
2022-09-21T10:47:17.271Z,5.03
2022-09-21T10:49:48.141Z,5.68
2022-09-21T10:52:15.828Z,7.10
2022-09-21T10:54:43.778Z,4.32
2022-09-21T10:57:15.782Z,3.05
2022-09-21T10:59:45.162Z,2.53
2022-09-21T11:02:26.421Z,4.32
2022-09-21T11:04:57.119Z,2.58
2022-09-21T11:07:28.578Z,3.78
2022-09-21T11:10:00.288Z,3.22
2022-09-21T11:12:45.913Z,3.13
2022-09-21T11:15:18.213Z,4.80
2022-09-21T11:17:49.183Z,6.78
2022-09-21T11:20:21.181Z,3.28
2022-09-21T11:22:57.410Z,2.30
2022-09-21T11:25:32.597Z,5.75
2022-09-21T11:28:03.577Z,3.15
2022-09-21T11:30:39.960Z,4.40
2022-09-21T11:33:14.187Z,3.08
2022-09-21T11:38:24.915Z,3.13
2022-09-21T11:40:58.160Z,2.40
2022-09-21T11:43:33.756Z,3.40
2022-09-21T11:46:08.640Z,2.25
2022-09-21T11:49:07.153Z,2.75
2022-09-21T11:51:46.154Z,2.38
2022-09-21T11:54:26.161Z,1.80
2022-09-21T11:56:56.134Z,4.03
2022-09-21T11:59:36.101Z,2.33
2022-09-21T12:02:18.977Z,2.95
2022-09-21T12:04:49.256Z,2.47
2022-09-21T12:07:23.445Z,2.15
2022-09-21T12:12:22.268Z,3.95
2022-09-21T12:14:59.818Z,2.38
2022-09-21T12:17:33.204Z,1.27
2022-09-21T12:20:04.271Z,2.55
2022-09-21T12:22:33.718Z,1.23
2022-09-21T12:25:04.370Z,1.48
2022-09-21T12:27:35.067Z,2.28
2022-09-21T12:30:04.828Z,1.20
2022-09-21T12:32:40.671Z,4.65
2022-09-21T12:35:13.835Z,1.40
2022-09-21T12:37:43.341Z,2.08
2022-09-21T12:40:18.077Z,1.52
2022-09-21T12:42:48.062Z,2.33
2022-09-21T12:45:18.180Z,2.10
2022-09-21T12:47:49.765Z,2.38
2022-09-21T12:50:21.666Z,2.63
2022-09-21T12:52:50.689Z,2.60
2022-09-21T12:55:41.922Z,2.20
2022-09-21T12:58:16.158Z,1.92
2022-09-21T13:00:47.672Z,2.28
2022-09-21T13:03:20.373Z,1.90
2022-09-21T13:05:57.232Z,2.85
2022-09-21T13:08:28.578Z,2.60
2022-09-21T13:11:04.617Z,1.98
2022-09-21T13:13:33.704Z,3.63
2022-09-21T13:16:01.712Z,4.00
2022-09-21T13:18:36.204Z,2.03
2022-09-21T13:21:16.388Z,3.22
2022-09-21T13:23:44.558Z,3.25
2022-09-21T13:26:13.395Z,5.32
2022-09-21T13:28:42.810Z,2.30
2022-09-21T13:31:40.458Z,2.78
2022-09-21T13:34:22.010Z,2.50
2022-09-21T13:37:04.518Z,2.05
2022-09-21T13:39:32.199Z,1.95
2022-09-21T13:42:03.353Z,4.07
2022-09-21T13:44:40.524Z,3.03
2022-09-21T13:47:09.095Z,2.13
2022-09-21T13:49:51.011Z,2.30
2022-09-21T13:52:26.312Z,1.98
2022-09-21T13:54:57.647Z,4.43
2022-09-21T13:57:28.359Z,1.80
2022-09-21T14:00:14.775Z,4.05
2022-09-21T14:02:43.798Z,2.03
2022-09-21T14:05:21.130Z,2.10
2022-09-21T14:07:55.451Z,2.97
2022-09-21T14:10:23.478Z,2.80
2022-09-21T14:12:51.727Z,2.97
2022-09-21T14:15:32.918Z,2.97
2022-09-21T14:18:24.689Z,1.98
2022-09-21T14:21:17.114Z,1.30
2022-09-21T14:24:00.671Z,2.65
2022-09-21T14:26:33.884Z,1.83
2022-09-21T14:29:08.574Z,2.00
2022-09-21T14:31:38.722Z,4.43
2022-09-21T14:34:11.525Z,2.85
2022-09-21T14:36:45.815Z,2.10
2022-09-21T14:41:43.727Z,3.03
2022-09-21T14:44:18.970Z,3.53
2022-09-21T14:47:05.015Z,2.45
2022-09-21T14:49:40.748Z,2.67
2022-09-21T14:52:23.487Z,2.75
2022-09-21T14:55:02.939Z,4.78
2022-09-21T14:57:43.372Z,4.80
2022-09-21T15:00:15.841Z,2.83
2022-09-21T15:02:45.483Z,2.88
2022-09-21T15:05:20.675Z,1.77
2022-09-21T15:08:14.297Z,2.97
2022-09-21T15:10:58.830Z,3.45
2022-09-21T15:16:01.267Z,5.65
2022-09-21T15:18:30.802Z,2.58
2022-09-21T15:21:02.611Z,4.28
2022-09-21T15:23:33.495Z,4.97
2022-09-21T15:26:02.769Z,5.82
2022-09-21T15:28:58.050Z,6.22
2022-09-21T15:31:26.457Z,7.10
2022-09-21T15:33:54.685Z,3.28
2022-09-21T15:36:24.115Z,5.28
2022-09-21T15:38:56.669Z,4.35
2022-09-21T15:41:41.383Z,4.70
2022-09-21T15:44:14.544Z,6.20
2022-09-21T15:46:44.156Z,4.97
2022-09-21T15:49:15.420Z,3.60
2022-09-21T15:51:45.857Z,5.47
2022-09-21T15:54:21.756Z,2.97
2022-09-21T15:56:49.551Z,4.40
2022-09-21T15:59:18.254Z,4.70
2022-09-21T16:01:48.151Z,4.07
2022-09-21T16:04:17.968Z,4.30
2022-09-21T16:06:47.868Z,6.15
2022-09-21T16:09:30.148Z,4.40
2022-09-21T16:11:58.513Z,7.40
2022-09-21T16:14:46.804Z,4.15
2022-09-21T16:17:22.331Z,5.07
2022-09-21T16:20:09.538Z,4.28
2022-09-21T16:22:38.552Z,4.18
2022-09-21T16:25:21.776Z,7.28
2022-09-21T16:27:54.556Z,5.25
2022-09-21T16:30:37.509Z,9.85
2022-09-21T16:33:25.741Z,7.13
2022-09-21T16:35:54.287Z,10.45
2022-09-21T16:38:23.841Z,4.57
2022-09-21T16:40:56.941Z,7.45
2022-09-21T16:43:24.774Z,6.95
2022-09-21T16:45:52.553Z,6.10
2022-09-21T16:48:23.012Z,6.82
2022-09-21T16:50:56.661Z,5.20
2022-09-21T16:53:24.474Z,5.82
2022-09-21T16:55:53.681Z,11.68
2022-09-21T16:58:23.253Z,5.22
2022-09-21T17:00:56.184Z,9.13
2022-09-21T17:03:24.196Z,4.78
2022-09-21T17:05:51.919Z,5.57
2022-09-21T17:08:19.768Z,5.32
2022-09-21T17:10:47.527Z,6.43
2022-09-21T17:13:19.795Z,5.53
2022-09-21T17:15:49.320Z,9.52
2022-09-21T17:18:17.829Z,9.70
2022-09-21T17:20:46.177Z,6.82
2022-09-21T17:23:14.839Z,7.22
2022-09-21T17:25:42.641Z,9.02
2022-09-21T17:28:15.876Z,11.02
2022-09-21T17:30:46.096Z,8.15
2022-09-21T17:33:15.282Z,9.10
2022-09-21T17:35:43.367Z,12.43
2022-09-21T17:38:14.551Z,11.48
2022-09-21T17:40:43.131Z,9.75
2022-09-21T17:43:18.755Z,13.25
2022-09-21T17:45:50.855Z,10.40
2022-09-21T17:48:21.430Z,9.18
2022-09-21T17:50:52.277Z,9.52
2022-09-21T17:53:34.757Z,8.50
2022-09-21T17:56:11.996Z,12.27
2022-09-21T17:58:43.117Z,11.43
2022-09-21T18:01:16.071Z,10.68
2022-09-21T18:03:47.938Z,9.55
2022-09-21T18:06:16.319Z,14.13
2022-09-21T18:08:46.654Z,12.15
2022-09-21T18:11:17.205Z,13.93
2022-09-21T18:13:54.230Z,19.08
2022-09-21T18:16:28.899Z,8.65
2022-09-21T18:19:02.647Z,9.00
2022-09-21T18:21:30.598Z,11.48
2022-09-21T18:24:16.274Z,10.27
2022-09-21T18:26:44.417Z,7.63
2022-09-21T18:29:38.891Z,11.73
2022-09-21T18:32:19.112Z,11.15
2022-09-21T18:34:56.230Z,9.38
2022-09-21T18:37:30.115Z,8.82
2022-09-21T18:40:04.261Z,9.98
2022-09-21T18:42:40.457Z,7.80
2022-09-21T18:45:12.226Z,10.20
2022-09-21T18:47:42.946Z,8.25
2022-09-21T18:50:19.726Z,9.15
2022-09-21T18:53:04.923Z,10.98
2022-09-21T18:55:33.572Z,9.98
2022-09-21T18:58:01.956Z,11.95
2022-09-21T19:00:32.242Z,10.13
2022-09-21T19:03:16.537Z,11.07
2022-09-21T19:05:49.222Z,9.68
2022-09-21T19:08:20.669Z,8.77
2022-09-21T19:10:52.715Z,9.10
2022-09-21T19:13:34.059Z,11.70
2022-09-21T19:16:05.834Z,14.68
2022-09-21T19:18:37.822Z,12.15
2022-09-21T19:21:13.479Z,14.15
2022-09-21T19:23:46.169Z,9.30
2022-09-21T19:26:19.765Z,16.50
2022-09-21T19:29:03.694Z,13.23
2022-09-21T19:31:34.065Z,10.02
2022-09-21T19:34:06.838Z,7.97
2022-09-21T19:36:37.003Z,8.30
2022-09-21T19:39:04.965Z,8.52
2022-09-21T19:41:35.267Z,8.80
2022-09-21T19:44:08.177Z,12.90
2022-09-21T19:46:40.672Z,9.40
2022-09-21T19:49:13.266Z,6.05
2022-09-21T19:51:49.231Z,9.23
2022-09-21T19:54:35.333Z,8.27
2022-09-21T19:57:20.550Z,10.77
2022-09-21T19:59:48.424Z,10.65
2022-09-21T20:02:19.742Z,9.32
2022-09-21T20:04:51.823Z,12.35
2022-09-21T20:07:25.135Z,8.75
2022-09-21T20:10:01.000Z,8.15
2022-09-21T20:12:34.179Z,8.63
2022-09-21T20:15:05.495Z,11.63
2022-09-21T20:17:36.277Z,10.05
2022-09-21T20:20:08.925Z,11.57
2022-09-21T20:22:38.865Z,8.70
2022-09-21T20:25:12.822Z,7.60
2022-09-21T20:27:41.605Z,15.68
2022-09-21T20:30:11.318Z,15.20
2022-09-21T20:32:39.965Z,12.65
2022-09-21T20:35:12.088Z,7.50
2022-09-21T20:37:41.532Z,8.90
2022-09-21T20:40:13.366Z,8.48
2022-09-21T20:42:41.187Z,8.27
2022-09-21T20:45:10.003Z,8.73
2022-09-21T20:47:37.660Z,9.85
2022-09-21T20:50:05.624Z,7.75
2022-09-21T20:52:34.363Z,8.77
2022-09-21T20:55:03.416Z,7.45
2022-09-21T20:57:32.858Z,9.63
2022-09-21T21:00:00.500Z,9.65
2022-09-21T21:02:28.122Z,8.45
2022-09-21T21:04:56.427Z,14.52
2022-09-21T21:07:27.157Z,13.35
2022-09-21T21:09:58.810Z,12.13
2022-09-21T21:12:29.664Z,12.00
2022-09-21T21:15:00.050Z,13.57
2022-09-21T21:17:27.696Z,8.23
2022-09-21T21:19:55.327Z,11.25
2022-09-21T21:22:23.002Z,10.73
2022-09-21T21:24:50.599Z,7.93
2022-09-21T21:27:18.819Z,10.02
2022-09-21T21:29:50.282Z,11.02
2022-09-21T21:32:18.411Z,8.80
2022-09-21T21:34:46.227Z,9.50
2022-09-21T21:37:14.446Z,11.25
2022-09-21T21:39:42.020Z,14.63
2022-09-21T21:42:11.132Z,11.88
2022-09-21T21:44:38.990Z,14.77
2022-09-21T21:47:27.727Z,13.88
2022-09-21T21:49:56.567Z,17.85
2022-09-21T21:52:24.148Z,12.60
2022-09-21T21:54:51.738Z,16.75
2022-09-21T21:57:19.418Z,14.13
2022-09-21T21:59:47.013Z,10.32
2022-09-21T22:02:16.464Z,11.13
2022-09-21T22:04:45.151Z,14.43
2022-09-21T22:07:13.141Z,11.20
2022-09-21T22:09:40.793Z,17.65
2022-09-21T22:12:08.557Z,15.07
2022-09-21T22:14:36.185Z,9.68
2022-09-21T22:17:04.163Z,12.98
2022-09-21T22:19:33.175Z,13.38
2022-09-21T22:22:00.945Z,11.63
2022-09-21T22:24:28.569Z,11.75
2022-09-21T22:26:56.215Z,9.40
2022-09-21T22:29:24.527Z,10.88
2022-09-21T22:31:54.131Z,14.20
2022-09-21T22:34:21.810Z,11.30
2022-09-21T22:36:52.203Z,8.93
2022-09-21T22:39:20.177Z,11.07
2022-09-21T22:41:52.830Z,10.57
2022-09-21T22:44:20.513Z,11.68
2022-09-21T22:46:48.089Z,14.48
2022-09-21T22:49:15.741Z,9.65
2022-09-21T22:51:43.345Z,9.55
2022-09-21T22:54:12.516Z,12.02
2022-09-21T22:56:40.164Z,9.63
2022-09-21T22:59:08.579Z,13.95
2022-09-21T23:01:37.633Z,10.85
2022-09-21T23:04:06.544Z,13.00
2022-09-21T23:06:35.074Z,15.82
2022-09-21T23:09:03.746Z,11.38
2022-09-21T23:11:33.549Z,11.95
2022-09-21T23:14:01.448Z,14.18
2022-09-21T23:16:29.939Z,11.98
2022-09-21T23:18:58.013Z,12.10
2022-09-21T23:21:27.222Z,13.48
2022-09-21T23:24:02.252Z,16.63
2022-09-21T23:26:30.595Z,16.13
2022-09-21T23:29:00.620Z,14.68
2022-09-21T23:31:29.871Z,14.82
2022-09-21T23:33:58.278Z,15.88
2022-09-21T23:36:26.843Z,12.40
2022-09-21T23:38:54.428Z,17.20
2022-09-21T23:41:23.239Z,12.80
2022-09-21T23:43:51.200Z,14.98
2022-09-21T23:46:20.956Z,14.48
2022-09-21T23:48:48.998Z,13.80
2022-09-21T23:51:16.969Z,12.38
2022-09-21T23:53:45.013Z,15.05
2022-09-21T23:56:14.902Z,18.00
2022-09-21T23:58:42.559Z,16.63
